createdAt,value
2023-04-29T00:01:02.204Z,16.98
2023-04-29T00:02:23.863Z,17.45
2023-04-29T00:03:49.649Z,19.23
2023-04-29T00:05:15.135Z,18.00
2023-04-29T00:06:38.044Z,14.07
2023-04-29T00:08:00.912Z,18.55
2023-04-29T00:09:30.840Z,17.38
2023-04-29T00:10:52.459Z,14.73
2023-04-29T00:12:18.609Z,19.65
2023-04-29T00:13:43.134Z,16.98
2023-04-29T00:15:06.594Z,16.90
2023-04-29T00:16:30.721Z,18.25
2023-04-29T00:17:52.334Z,18.20
2023-04-29T00:20:40.557Z,16.90
2023-04-29T00:22:03.689Z,13.27
2023-04-29T00:23:24.897Z,21.83
2023-04-29T00:24:47.332Z,16.38
2023-04-29T00:26:10.048Z,20.73
2023-04-29T00:27:33.856Z,17.95
2023-04-29T00:28:56.487Z,14.05
2023-04-29T00:30:20.655Z,13.80
2023-04-29T00:31:43.156Z,21.98
2023-04-29T00:33:12.929Z,16.05
2023-04-29T00:34:39.063Z,18.60
2023-04-29T00:36:26.009Z,17.95
2023-04-29T00:37:48.549Z,16.88
2023-04-29T00:39:09.858Z,17.38
2023-04-29T00:40:32.551Z,19.30
2023-04-29T00:41:55.435Z,18.40
2023-04-29T00:43:19.382Z,20.23
2023-04-29T00:44:42.432Z,19.60
2023-04-29T00:46:07.249Z,20.30
2023-04-29T00:47:29.800Z,19.90
2023-04-29T00:48:54.581Z,19.73
2023-04-29T00:50:17.337Z,17.08
2023-04-29T00:51:41.225Z,20.52
2023-04-29T00:53:04.455Z,18.83
2023-04-29T00:54:27.254Z,19.10
2023-04-29T00:55:55.848Z,18.52
2023-04-29T00:57:19.905Z,21.27
2023-04-29T00:58:50.331Z,22.10
2023-04-29T01:00:14.175Z,17.63
2023-04-29T01:01:40.257Z,22.25
2023-04-29T01:03:03.083Z,22.10
2023-04-29T01:04:24.880Z,30.25
2023-04-29T01:06:00.195Z,24.50
2023-04-29T01:07:31.710Z,21.55
2023-04-29T01:09:05.165Z,20.23
2023-04-29T01:10:32.833Z,19.55
2023-04-29T01:12:07.025Z,22.45
2023-04-29T01:13:35.672Z,20.40
2023-04-29T01:15:07.220Z,20.23
2023-04-29T01:16:36.171Z,23.10
2023-04-29T01:18:07.345Z,21.83
2023-04-29T01:19:45.922Z,20.92
2023-04-29T01:21:08.341Z,31.02
2023-04-29T01:22:33.713Z,20.67
2023-04-29T01:23:57.487Z,23.60
2023-04-29T01:25:25.259Z,26.15
2023-04-29T01:28:52.319Z,22.88
2023-04-29T01:30:29.142Z,24.27
2023-04-29T01:32:11.108Z,21.13
2023-04-29T01:33:42.926Z,19.15
2023-04-29T01:36:57.810Z,21.30
2023-04-29T01:38:34.092Z,21.27
2023-04-29T01:40:06.907Z,21.30
2023-04-29T01:41:44.593Z,21.58
2023-04-29T01:43:16.509Z,22.08
2023-04-29T01:44:44.484Z,17.70
2023-04-29T01:46:12.924Z,26.65
2023-04-29T01:47:37.932Z,26.25
2023-04-29T01:49:03.742Z,22.17
2023-04-29T01:50:29.235Z,19.70
2023-04-29T01:51:57.860Z,21.00
2023-04-29T01:53:21.493Z,23.17
2023-04-29T01:54:44.690Z,20.83
2023-04-29T01:56:12.662Z,21.35
2023-04-29T01:57:55.040Z,27.35
2023-04-29T01:59:44.216Z,23.02
2023-04-29T02:01:29.690Z,22.67
2023-04-29T02:02:52.804Z,21.58
2023-04-29T02:04:33.912Z,23.35
2023-04-29T02:05:58.286Z,26.88
2023-04-29T02:07:30.852Z,25.92
2023-04-29T02:08:54.205Z,23.35
2023-04-29T02:10:18.609Z,21.13
2023-04-29T02:11:48.660Z,25.73
2023-04-29T02:13:12.485Z,23.02
2023-04-29T02:14:45.424Z,24.20
2023-04-29T02:16:12.061Z,21.02
2023-04-29T02:17:41.464Z,20.48
2023-04-29T02:19:04.440Z,23.95
2023-04-29T02:20:26.679Z,21.58
2023-04-29T02:21:49.977Z,28.08
2023-04-29T02:23:12.732Z,23.25
2023-04-29T02:25:57.199Z,24.35
2023-04-29T02:27:24.501Z,26.10
2023-04-29T02:28:47.509Z,23.60
2023-04-29T02:30:14.668Z,23.60
2023-04-29T02:31:36.465Z,25.73
2023-04-29T02:34:21.600Z,22.00
2023-04-29T02:35:48.048Z,26.30
2023-04-29T02:37:11.893Z,25.17
2023-04-29T02:38:34.278Z,21.02
2023-04-29T02:40:01.660Z,26.67
2023-04-29T02:41:25.938Z,23.40
2023-04-29T02:42:49.966Z,26.95
2023-04-29T02:44:11.415Z,21.50
2023-04-29T02:45:33.785Z,21.52
2023-04-29T02:50:13.299Z,19.15
2023-04-29T02:51:43.049Z,21.35
2023-04-29T02:53:09.402Z,21.33
2023-04-29T02:54:33.197Z,21.80
2023-04-29T02:56:12.843Z,22.17
2023-04-29T02:57:34.343Z,25.33
2023-04-29T02:59:05.532Z,20.27
2023-04-29T03:00:52.953Z,22.13
2023-04-29T03:02:40.605Z,19.83
2023-04-29T03:05:49.082Z,17.05
2023-04-29T03:07:11.897Z,20.30
2023-04-29T03:08:37.817Z,19.52
2023-04-29T03:10:57.121Z,16.38
2023-04-29T03:12:19.345Z,20.60
2023-04-29T03:13:42.317Z,21.88
2023-04-29T03:15:13.228Z,19.95
2023-04-29T03:18:26.920Z,23.80
2023-04-29T03:19:54.730Z,15.88
2023-04-29T03:21:18.086Z,21.10
2023-04-29T03:22:40.205Z,18.50
2023-04-29T03:24:19.246Z,18.10
2023-04-29T03:25:44.535Z,19.25
2023-04-29T03:27:48.534Z,20.63
2023-04-29T03:29:44.879Z,24.80
2023-04-29T03:31:19.367Z,14.98
2023-04-29T03:32:42.500Z,20.63
2023-04-29T03:34:04.910Z,20.95
2023-04-29T03:35:30.761Z,23.73
2023-04-29T03:43:13.410Z,19.85
2023-04-29T03:44:37.226Z,16.25
2023-04-29T03:46:00.283Z,23.02
2023-04-29T03:47:23.321Z,16.65
2023-04-29T03:48:46.130Z,19.90
2023-04-29T03:50:09.289Z,18.88
2023-04-29T03:51:33.535Z,22.67
2023-04-29T03:53:44.200Z,22.00
2023-04-29T03:55:22.801Z,20.48
2023-04-29T03:57:03.772Z,16.95
2023-04-29T03:58:28.560Z,16.85
2023-04-29T04:00:08.463Z,17.58
2023-04-29T04:01:57.936Z,22.05
2023-04-29T04:03:26.016Z,20.70
2023-04-29T04:05:06.680Z,23.17
2023-04-29T04:06:46.022Z,21.00
2023-04-29T04:08:10.073Z,19.15
2023-04-29T04:09:31.464Z,21.08
2023-04-29T04:10:54.251Z,19.40
2023-04-29T04:13:37.785Z,20.50
2023-04-29T04:18:30.888Z,19.98
2023-04-29T04:25:47.673Z,19.95
2023-04-29T04:27:44.127Z,19.13
2023-04-29T04:29:35.176Z,16.35
2023-04-29T04:31:35.443Z,22.15
2023-04-29T04:33:49.955Z,20.48
2023-04-29T04:35:30.811Z,17.55
2023-04-29T04:43:37.345Z,20.80
2023-04-29T04:45:14.929Z,16.00
2023-04-29T04:50:13.400Z,19.70
2023-04-29T04:54:14.025Z,17.70
2023-04-29T04:56:46.260Z,19.63
2023-04-29T04:58:40.245Z,16.42
2023-04-29T05:00:52.398Z,19.63
2023-04-29T05:02:19.868Z,21.48
2023-04-29T05:04:11.580Z,19.75
2023-04-29T05:13:00.705Z,21.35
2023-04-29T05:24:40.133Z,16.95
2023-04-29T05:31:00.518Z,17.38
2023-04-29T05:32:25.751Z,16.88
2023-04-29T05:48:30.335Z,16.30
2023-04-29T05:49:55.285Z,16.80
2023-04-29T05:51:19.858Z,20.40
2023-04-29T05:53:47.362Z,16.60
2023-04-29T05:55:02.907Z,17.95
2023-04-29T05:56:28.055Z,17.25
2023-04-29T05:57:53.058Z,18.48
2023-04-29T06:02:23.965Z,18.85
2023-04-29T06:03:46.882Z,20.90
2023-04-29T06:05:31.788Z,14.00
2023-04-29T06:07:17.720Z,17.67
2023-04-29T06:08:45.880Z,20.50
2023-04-29T06:10:16.377Z,17.48
2023-04-29T06:11:58.419Z,16.88
2023-04-29T06:13:48.507Z,15.93
2023-04-29T06:15:29.889Z,16.15
2023-04-29T06:16:52.988Z,12.90
2023-04-29T06:18:23.598Z,13.80
2023-04-29T06:20:11.904Z,14.88
2023-04-29T06:21:53.984Z,20.60
2023-04-29T06:23:15.745Z,19.27
2023-04-29T06:24:41.266Z,19.67
2023-04-29T06:26:07.746Z,19.20
2023-04-29T06:27:36.714Z,20.70
2023-04-29T06:29:12.565Z,14.13
2023-04-29T06:30:57.468Z,16.92
2023-04-29T06:33:12.594Z,17.42
2023-04-29T06:34:41.003Z,17.00
2023-04-29T06:37:36.408Z,15.32
2023-04-29T06:39:19.780Z,15.77
2023-04-29T06:41:04.805Z,17.58
2023-04-29T06:44:11.011Z,18.88
2023-04-29T06:46:34.296Z,18.00
2023-04-29T06:49:18.513Z,16.52
2023-04-29T06:56:47.630Z,19.70
2023-04-29T06:58:24.088Z,22.88
2023-04-29T07:00:11.093Z,29.83
2023-04-29T07:04:51.652Z,24.85
2023-04-29T07:06:24.999Z,24.70
2023-04-29T07:07:57.922Z,22.30
2023-04-29T07:09:29.705Z,20.77
2023-04-29T07:11:28.811Z,26.50
2023-04-29T07:12:56.902Z,23.95
2023-04-29T07:14:31.724Z,30.10
2023-04-29T07:18:21.446Z,22.90
2023-04-29T07:29:50.283Z,21.60
2023-04-29T07:31:29.945Z,22.70
2023-04-29T07:33:49.697Z,22.33
2023-04-29T07:35:18.983Z,22.85
2023-04-29T07:36:52.208Z,22.55
2023-04-29T07:38:15.931Z,23.92
2023-04-29T07:39:49.645Z,23.63
2023-04-29T07:41:17.040Z,24.63
2023-04-29T07:42:42.828Z,26.08
2023-04-29T07:44:20.123Z,23.55
2023-04-29T07:45:53.027Z,22.35
2023-04-29T07:47:38.811Z,22.58
2023-04-29T07:49:03.726Z,24.00
2023-04-29T07:56:54.986Z,21.75
2023-04-29T07:58:43.832Z,22.60
2023-04-29T08:00:29.140Z,21.27
2023-04-29T08:02:05.446Z,22.98
2023-04-29T08:03:39.887Z,18.73
2023-04-29T08:06:10.751Z,22.25
2023-04-29T08:10:32.169Z,23.83
2023-04-29T08:34:59.538Z,19.67
2023-04-29T09:07:08.896Z,18.20
2023-04-29T09:10:54.899Z,18.42
2023-04-29T09:12:20.998Z,18.95
2023-04-29T09:13:44.938Z,17.08
2023-04-29T09:15:47.220Z,21.80
2023-04-29T09:17:51.189Z,21.55
2023-04-29T09:23:10.629Z,23.00
2023-04-29T09:25:13.435Z,32.83
2023-04-29T09:32:54.960Z,25.25
2023-04-29T09:43:05.352Z,14.27
2023-04-29T09:45:09.740Z,12.32
2023-04-29T09:46:45.496Z,17.95
2023-04-29T09:48:45.129Z,15.80
2023-04-29T09:50:19.941Z,17.38
2023-04-29T09:52:05.335Z,18.45
2023-04-29T09:53:38.184Z,17.98
2023-04-29T09:55:09.312Z,16.17
2023-04-29T09:56:57.023Z,16.33
2023-04-29T09:58:51.614Z,16.48
2023-04-29T10:00:59.714Z,16.73
2023-04-29T10:03:25.940Z,15.60
2023-04-29T10:07:39.144Z,16.83
2023-04-29T10:10:05.855Z,12.65
2023-04-29T10:12:26.224Z,10.07
2023-04-29T10:14:27.714Z,14.57
2023-04-29T10:16:12.026Z,16.83
2023-04-29T10:17:49.618Z,12.70
2023-04-29T10:19:50.852Z,14.45
2023-04-29T10:22:48.754Z,18.02
2023-04-29T10:25:26.462Z,11.00
2023-04-29T10:26:54.202Z,9.98
2023-04-29T10:28:49.200Z,11.02
2023-04-29T10:30:16.854Z,7.13
2023-04-29T10:31:42.844Z,6.88
2023-04-29T10:33:10.128Z,7.25
2023-04-29T10:34:40.488Z,8.38
2023-04-29T10:36:14.171Z,7.43
2023-04-29T10:38:09.219Z,6.07
2023-04-29T10:39:53.998Z,8.10
2023-04-29T10:41:29.624Z,6.35
2023-04-29T10:43:15.104Z,7.57
2023-04-29T10:45:30.573Z,6.13
2023-04-29T10:47:34.539Z,8.27
2023-04-29T10:49:23.068Z,5.30
2023-04-29T10:51:23.808Z,8.43
2023-04-29T10:53:04.242Z,5.85
2023-04-29T10:54:59.499Z,6.47
2023-04-29T10:56:57.142Z,4.57
2023-04-29T10:59:43.762Z,4.45
2023-04-29T11:01:48.728Z,4.38
2023-04-29T11:04:04.159Z,6.18
2023-04-29T11:08:41.478Z,6.30
2023-04-29T11:10:52.851Z,13.45
2023-04-29T11:14:39.357Z,6.72
2023-04-29T11:17:20.871Z,4.85
2023-04-29T11:19:20.957Z,6.13
2023-04-29T11:21:17.936Z,7.70
2023-04-29T11:23:03.067Z,6.30
2023-04-29T11:24:44.054Z,6.50
2023-04-29T11:26:14.675Z,5.57
2023-04-29T11:27:58.713Z,4.53
2023-04-29T11:29:39.076Z,9.43
2023-04-29T11:31:03.923Z,7.70
2023-04-29T11:32:27.831Z,10.07
2023-04-29T11:34:22.218Z,7.13
2023-04-29T11:36:55.149Z,8.05
2023-04-29T11:40:12.182Z,6.50
2023-04-29T11:43:44.037Z,4.93
2023-04-29T11:45:10.475Z,6.43
2023-04-29T11:46:37.203Z,7.82
2023-04-29T11:48:18.517Z,5.43
2023-04-29T11:49:43.098Z,4.93
2023-04-29T11:51:10.662Z,3.90
2023-04-29T11:52:40.969Z,8.25
2023-04-29T11:54:36.341Z,4.97
2023-04-29T11:58:27.755Z,4.40
2023-04-29T12:00:16.958Z,5.53
2023-04-29T12:01:44.874Z,4.57
2023-04-29T12:47:04.989Z,10.02
2023-04-29T12:56:43.026Z,6.05
2023-04-29T13:16:28.855Z,4.28
2023-04-29T13:18:16.941Z,3.90
2023-04-29T13:20:23.309Z,3.80
2023-04-29T13:22:29.878Z,3.63
2023-04-29T13:45:52.286Z,3.67
2023-04-29T13:51:00.968Z,7.13
2023-04-29T13:52:58.358Z,5.30
2023-04-29T13:56:11.575Z,12.02
2023-04-29T14:07:04.851Z,7.43
2023-04-29T14:08:53.479Z,5.05
2023-04-29T14:10:46.431Z,3.05
2023-04-29T14:12:46.417Z,6.20
2023-04-29T14:17:36.912Z,4.72
2023-04-29T14:19:22.695Z,8.40
2023-04-29T14:20:57.213Z,5.07
2023-04-29T14:22:41.758Z,3.45
2023-04-29T14:24:29.980Z,4.97
2023-04-29T14:26:39.058Z,2.95
2023-04-29T14:28:22.006Z,3.38
2023-04-29T14:29:54.107Z,3.50
2023-04-29T14:31:29.757Z,3.90
2023-04-29T14:33:14.107Z,8.60
2023-04-29T14:34:41.977Z,5.75
2023-04-29T14:36:08.652Z,5.00
2023-04-29T14:38:02.047Z,5.22
2023-04-29T14:39:38.654Z,5.95
2023-04-29T14:43:18.436Z,7.35
2023-04-29T14:44:46.622Z,12.45
2023-04-29T14:46:34.996Z,7.28
2023-04-29T14:48:02.271Z,6.93
2023-04-29T14:51:14.537Z,6.97
2023-04-29T14:52:41.235Z,9.30
2023-04-29T14:54:16.953Z,7.15
2023-04-29T14:56:01.631Z,8.18
2023-04-29T14:57:36.157Z,14.55
2023-04-29T14:59:09.969Z,8.90
2023-04-29T15:00:42.796Z,9.48
2023-04-29T15:02:11.882Z,8.10
2023-04-29T15:03:44.323Z,9.15
2023-04-29T15:05:08.060Z,8.35
2023-04-29T15:06:41.753Z,9.50
2023-04-29T15:08:09.584Z,11.48
2023-04-29T15:10:09.639Z,9.70
2023-04-29T15:11:38.313Z,9.48
2023-04-29T15:13:02.287Z,10.38
2023-04-29T15:14:33.826Z,9.13
2023-04-29T15:15:56.433Z,10.27
2023-04-29T15:17:20.045Z,11.05
2023-04-29T15:19:02.704Z,11.80
2023-04-29T15:20:39.868Z,9.48
2023-04-29T15:22:10.631Z,10.10
2023-04-29T15:23:33.681Z,9.10
2023-04-29T15:25:36.187Z,6.65
2023-04-29T15:27:21.702Z,4.72
2023-04-29T15:28:58.549Z,4.45
2023-04-29T15:30:37.461Z,4.13
2023-04-29T15:32:28.682Z,3.80
2023-04-29T15:33:55.107Z,4.35
2023-04-29T15:35:17.670Z,10.82
2023-04-29T15:36:43.183Z,6.43
2023-04-29T15:38:10.336Z,6.07
2023-04-29T15:39:36.333Z,7.57
2023-04-29T15:42:24.397Z,9.18
2023-04-29T15:43:26.875Z,6.30
2023-04-29T15:44:55.136Z,8.52
2023-04-29T15:46:45.620Z,8.73
2023-04-29T15:48:33.415Z,6.90
2023-04-29T15:52:42.287Z,6.93
2023-04-29T15:54:14.546Z,11.57
2023-04-29T16:00:45.159Z,8.25
2023-04-29T16:02:25.096Z,18.05
2023-04-29T16:03:52.597Z,11.40
2023-04-29T16:05:31.937Z,11.60
2023-04-29T16:07:11.817Z,9.60
2023-04-29T16:08:40.045Z,11.93
2023-04-29T16:10:13.903Z,11.73
2023-04-29T16:13:00.127Z,11.15
2023-04-29T16:14:24.356Z,12.00
2023-04-29T16:15:48.861Z,10.73
2023-04-29T16:18:00.707Z,13.20
2023-04-29T16:21:39.669Z,11.43
2023-04-29T16:23:17.839Z,11.95
2023-04-29T16:31:39.673Z,10.82
2023-04-29T16:36:04.451Z,24.20
2023-04-29T16:37:41.925Z,12.88
2023-04-29T16:39:16.179Z,22.45
2023-04-29T16:40:45.461Z,12.45
2023-04-29T16:42:36.874Z,13.52
2023-04-29T16:44:15.359Z,13.30
2023-04-29T16:46:44.339Z,12.82
2023-04-29T16:48:21.830Z,11.90
2023-04-29T16:50:15.915Z,14.15
2023-04-29T16:51:52.915Z,10.68
2023-04-29T16:53:16.851Z,15.38
2023-04-29T16:54:45.499Z,12.23
2023-04-29T16:56:51.001Z,13.27
2023-04-29T17:00:28.815Z,11.90
2023-04-29T17:04:45.554Z,11.55
2023-04-29T17:06:19.790Z,16.23
2023-04-29T17:08:09.174Z,11.85
2023-04-29T17:09:44.811Z,13.13
2023-04-29T17:11:29.482Z,11.50
2023-04-29T17:14:08.250Z,13.02
2023-04-29T17:16:24.446Z,11.02
2023-04-29T17:18:07.218Z,11.05
2023-04-29T17:19:32.506Z,9.95
2023-04-29T17:20:56.877Z,12.45
2023-04-29T17:22:24.095Z,10.13
2023-04-29T17:23:46.675Z,9.45
2023-04-29T17:25:26.228Z,10.82
2023-04-29T17:27:01.948Z,8.45
2023-04-29T17:28:32.579Z,7.95
2023-04-29T17:30:02.715Z,9.65
2023-04-29T17:31:45.493Z,9.98
2023-04-29T17:33:17.919Z,9.23
2023-04-29T17:35:15.297Z,6.30
2023-04-29T17:37:32.697Z,11.77
2023-04-29T17:39:14.804Z,7.80
2023-04-29T17:41:17.014Z,5.93
2023-04-29T17:43:07.028Z,7.00
2023-04-29T17:49:18.586Z,7.05
2023-04-29T17:50:44.613Z,7.75
2023-04-29T17:52:13.596Z,7.10
2023-04-29T17:59:39.068Z,7.75
2023-04-29T18:01:22.178Z,7.20
2023-04-29T18:02:50.253Z,9.20
2023-04-29T18:04:44.889Z,7.80
2023-04-29T18:06:29.026Z,7.40
2023-04-29T18:08:06.980Z,7.75
2023-04-29T18:09:43.138Z,13.38
2023-04-29T18:11:57.157Z,11.65
2023-04-29T18:13:23.220Z,11.88
2023-04-29T18:17:18.887Z,11.80
2023-04-29T18:19:17.301Z,11.25
2023-04-29T18:20:53.986Z,12.32
2023-04-29T18:22:30.786Z,17.23
2023-04-29T18:23:54.161Z,14.32
2023-04-29T18:25:25.902Z,14.25
2023-04-29T18:27:04.181Z,23.57
2023-04-29T18:28:34.318Z,17.10
2023-04-29T18:30:01.224Z,16.92
2023-04-29T18:33:56.556Z,19.50
2023-04-29T18:35:38.388Z,19.83
2023-04-29T18:37:06.890Z,18.90
2023-04-29T18:38:34.509Z,21.20
2023-04-29T18:40:10.324Z,23.77
2023-04-29T18:41:46.867Z,24.10
2023-04-29T18:43:37.819Z,24.60
2023-04-29T18:45:04.951Z,26.55
2023-04-29T18:46:30.834Z,30.30
2023-04-29T18:48:17.315Z,30.35
2023-04-29T18:49:41.830Z,32.80
2023-04-29T18:51:28.248Z,36.45
2023-04-29T18:53:10.446Z,31.13
2023-04-29T18:54:41.677Z,34.92
2023-04-29T18:58:02.478Z,37.92
2023-04-29T18:59:31.686Z,40.08
2023-04-29T19:01:08.561Z,32.92
2023-04-29T19:02:35.730Z,35.70
2023-04-29T19:04:24.342Z,35.05
2023-04-29T19:06:15.596Z,37.33
2023-04-29T19:07:51.655Z,36.47
2023-04-29T19:09:16.700Z,36.78
2023-04-29T19:10:43.003Z,37.88
2023-04-29T19:12:47.656Z,35.55
2023-04-29T19:15:18.888Z,33.42
2023-04-29T19:16:56.920Z,38.28
2023-04-29T19:19:00.290Z,39.90
2023-04-29T19:20:28.097Z,33.70
2023-04-29T19:22:09.838Z,33.95
2023-04-29T19:23:46.191Z,41.15
2023-04-29T19:29:25.662Z,36.45
2023-04-29T19:30:48.980Z,37.22
2023-04-29T19:32:16.852Z,38.22
2023-04-29T19:34:08.419Z,45.13
2023-04-29T19:39:17.540Z,38.75
2023-04-29T19:40:42.729Z,54.58
2023-04-29T19:45:20.500Z,43.95
2023-04-29T19:47:04.109Z,42.85
2023-04-29T19:49:03.192Z,42.17
2023-04-29T19:51:22.889Z,44.45
2023-04-29T19:53:49.752Z,44.95
2023-04-29T19:55:20.613Z,42.72
2023-04-29T20:00:15.358Z,46.30
2023-04-29T20:02:02.137Z,46.92
2023-04-29T20:03:27.884Z,46.58
2023-04-29T20:05:21.130Z,46.92
2023-04-29T20:06:57.340Z,48.45
2023-04-29T20:08:28.443Z,50.63
2023-04-29T20:09:57.254Z,48.03
2023-04-29T20:11:53.187Z,47.80
2023-04-29T20:13:18.064Z,49.47
2023-04-29T20:14:46.377Z,51.70
2023-04-29T20:16:27.867Z,53.67
2023-04-29T20:17:59.759Z,52.43
2023-04-29T20:19:29.322Z,52.33
2023-04-29T20:21:16.892Z,49.03
2023-04-29T20:23:04.263Z,55.15
2023-04-29T20:24:27.224Z,52.20
2023-04-29T20:26:06.647Z,51.72
2023-04-29T20:28:11.795Z,50.65
2023-04-29T20:29:52.988Z,51.17
2023-04-29T20:31:24.689Z,50.17
2023-04-29T20:33:18.315Z,51.60
2023-04-29T20:36:50.018Z,46.47
2023-04-29T20:38:15.606Z,49.83
2023-04-29T20:40:13.696Z,48.58
2023-04-29T20:41:52.079Z,42.58
2023-04-29T20:43:26.924Z,45.63
2023-04-29T20:44:54.187Z,49.58
2023-04-29T20:46:20.315Z,45.50
2023-04-29T20:47:58.772Z,44.42
2023-04-29T20:49:40.123Z,43.55
2023-04-29T21:01:23.318Z,41.50
2023-04-29T21:03:14.827Z,40.50
2023-04-29T21:04:51.415Z,43.75
2023-04-29T21:06:18.293Z,43.53
2023-04-29T21:07:43.696Z,40.00
2023-04-29T21:09:06.820Z,40.58
2023-04-29T21:10:36.792Z,43.45
2023-04-29T21:15:13.998Z,41.22
2023-04-29T21:16:38.463Z,44.55
2023-04-29T21:21:58.942Z,42.33
2023-04-29T21:23:31.893Z,41.60
2023-04-29T21:25:02.870Z,42.13
2023-04-29T21:26:29.537Z,41.33
2023-04-29T21:28:17.013Z,39.40
2023-04-29T21:30:15.755Z,42.22
2023-04-29T21:32:41.341Z,36.40
2023-04-29T21:34:13.291Z,34.28
2023-04-29T21:37:16.793Z,34.53
2023-04-29T21:38:45.545Z,36.15
2023-04-29T21:40:19.060Z,32.58
2023-04-29T21:41:48.850Z,31.98
2023-04-29T21:43:18.561Z,36.72
2023-04-29T21:44:52.886Z,32.50
2023-04-29T21:46:18.833Z,36.92
2023-04-29T21:47:45.998Z,30.95
2023-04-29T21:49:08.795Z,33.83
2023-04-29T21:50:31.581Z,34.53
2023-04-29T21:51:54.158Z,35.40
2023-04-29T21:53:16.800Z,29.27
2023-04-29T21:54:39.903Z,34.08
2023-04-29T21:56:02.211Z,33.40
2023-04-29T21:57:35.554Z,33.03
2023-04-29T21:59:04.962Z,36.60
2023-04-29T22:00:33.452Z,30.98
2023-04-29T22:02:00.624Z,31.58
2023-04-29T22:03:23.235Z,27.98
2023-04-29T22:04:45.592Z,35.72
2023-04-29T22:06:10.431Z,31.42
2023-04-29T22:07:32.387Z,28.63
2023-04-29T22:08:54.913Z,27.88
2023-04-29T22:10:17.802Z,31.92
2023-04-29T22:11:50.326Z,26.30
2023-04-29T22:13:12.998Z,29.58
2023-04-29T22:14:38.331Z,33.95
2023-04-29T22:16:07.786Z,28.02
2023-04-29T22:17:33.826Z,27.15
2023-04-29T22:19:00.908Z,25.88
2023-04-29T22:20:34.669Z,23.85
2023-04-29T22:21:58.289Z,27.13
2023-04-29T22:23:22.899Z,24.45
2023-04-29T22:24:51.423Z,26.90
2023-04-29T22:26:14.190Z,26.38
2023-04-29T22:27:43.793Z,23.08
2023-04-29T22:29:11.898Z,25.08
2023-04-29T22:30:45.767Z,22.67
2023-04-29T22:32:08.640Z,22.00
2023-04-29T22:33:37.174Z,24.40
2023-04-29T22:35:01.422Z,21.65
2023-04-29T22:36:27.502Z,24.25
2023-04-29T22:37:49.208Z,21.27
2023-04-29T22:39:13.260Z,28.42
2023-04-29T22:40:55.767Z,24.85
2023-04-29T22:42:42.213Z,26.55
2023-04-29T22:44:06.842Z,25.42
2023-04-29T22:45:29.430Z,20.60
2023-04-29T22:46:52.319Z,22.52
2023-04-29T22:48:13.689Z,23.45
2023-04-29T22:49:36.597Z,20.52
2023-04-29T22:51:04.116Z,23.15
2023-04-29T22:52:27.179Z,23.08
2023-04-29T22:53:49.863Z,16.98
2023-04-29T22:55:11.344Z,20.30
2023-04-29T22:56:34.274Z,20.55
2023-04-29T22:57:55.701Z,17.13
2023-04-29T22:59:18.169Z,23.77
2023-04-29T23:00:42.276Z,23.90
2023-04-29T23:02:04.824Z,20.42
2023-04-29T23:03:27.761Z,21.88
2023-04-29T23:04:49.076Z,19.73
2023-04-29T23:06:15.501Z,24.58
2023-04-29T23:07:41.549Z,24.27
2023-04-29T23:09:12.555Z,22.02
2023-04-29T23:11:33.023Z,20.25
2023-04-29T23:13:18.267Z,20.70
2023-04-29T23:14:58.467Z,21.00
2023-04-29T23:16:37.826Z,22.05
2023-04-29T23:18:05.618Z,20.85
2023-04-29T23:19:38.567Z,18.90
2023-04-29T23:21:18.979Z,20.35
2023-04-29T23:22:42.826Z,25.55
2023-04-29T23:24:05.790Z,18.05
2023-04-29T23:25:28.374Z,28.42
2023-04-29T23:26:51.454Z,20.35
2023-04-29T23:28:14.298Z,21.02
2023-04-29T23:29:41.640Z,21.77
2023-04-29T23:31:04.526Z,19.60
2023-04-29T23:32:25.805Z,20.95
2023-04-29T23:33:48.903Z,20.08
2023-04-29T23:35:13.893Z,20.20
2023-04-29T23:36:40.802Z,19.80
2023-04-29T23:38:04.820Z,22.27
2023-04-29T23:39:27.582Z,21.95
2023-04-29T23:40:50.235Z,18.75
2023-04-29T23:42:28.131Z,22.13
2023-04-29T23:43:52.626Z,24.13
2023-04-29T23:45:15.655Z,20.67
2023-04-29T23:46:37.225Z,21.17
2023-04-29T23:48:01.356Z,20.88
2023-04-29T23:49:22.551Z,21.02
2023-04-29T23:50:44.869Z,26.83
2023-04-29T23:52:10.435Z,21.80
2023-04-29T23:53:33.104Z,23.60
2023-04-29T23:54:54.960Z,23.40
2023-04-29T23:56:40.525Z,23.00
2023-04-29T23:58:03.525Z,20.45
2023-04-29T23:59:24.904Z,20.33
